Terminal Aerodrome Forecast
Issued by NWS Cleveland, OH

Home | Current Version | Previous Version | Graphics & Text | Print | Product List | Glossary Off
Versions: 1 2 3 4 5 6 7 8 9 10 11 12 13 14 15 16 17 18 19 20 21 22

000
FTUS41 KCLE 172002 AAA
TAFTOL
TAF AMD
KTOL 172002Z 1720/1818 13006KT 5SM BR SCT020 OVC120
      TEMPO 1720/1723 6SM BR
     FM172300 19005KT P6SM VCSH BKN020 OVC040
     FM180600 23005KT 3SM BR BKN008 OVC015=

USA.gov is the U.S. government's official web portal to all federal, state and local government web resources and services.